Time;durP1;ratioP1;P1;durP2;ratioP2;P2;SDS_P1;SDS_P2;PMS_P1;PMS_P2;Temp;Humidity;BMP_temperature;BMP_pressure;BME280_temperature;BME280_humidity;BME280_pressure;Samples;Min_cycle;Max_cycle;Signal;HPM_P1;HPM_P2
2023/02/12 00:00:50;;;;;;;11.75;7.75;;;0.30;99.90;;;;;;4994763;28;20100;-75
2023/02/12 00:03:17;;;;;;;30.77;8.15;;;0.30;99.90;;;;;;4994523;28;20018;-77
2023/02/12 00:05:42;;;;;;;11.48;7.32;;;0.20;99.90;;;;;;4989336;28;20049;-77
2023/02/12 00:08:10;;;;;;;10.88;6.90;;;0.20;99.90;;;;;;4994542;28;20018;-76
2023/02/12 00:10:41;;;;;;;7.63;6.10;;;0.20;99.90;;;;;;4994747;28;20034;-77
2023/02/12 00:13:08;;;;;;;11.18;6.88;;;0.20;99.90;;;;;;4994866;28;20080;-77
2023/02/12 00:15:37;;;;;;;7.95;5.88;;;0.20;99.90;;;;;;4994477;28;20428;-79
2023/02/12 00:18:03;;;;;;;7.82;5.93;;;0.20;99.90;;;;;;4994341;28;20034;-78
2023/02/12 00:20:29;;;;;;;6.13;5.18;;;0.10;99.90;;;;;;4994283;28;20027;-76
2023/02/12 00:22:54;;;;;;;3.85;3.33;;;0.20;99.90;;;;;;4989738;28;20044;-77
2023/02/12 00:25:20;;;;;;;5.20;3.75;;;0.10;99.90;;;;;;4994342;28;20018;-76
2023/02/12 00:27:46;;;;;;;6.05;4.07;;;0.10;99.90;;;;;;4994180;28;20118;-76
2023/02/12 00:30:12;;;;;;;7.47;3.90;;;0.10;99.90;;;;;;4994081;28;20439;-78
2023/02/12 00:32:38;;;;;;;4.22;3.25;;;0.00;99.90;;;;;;4992949;28;20027;-78
2023/02/12 00:35:04;;;;;;;4.47;3.22;;;0.00;99.90;;;;;;4994025;28;20101;-77
2023/02/12 00:37:30;;;;;;;5.15;3.70;;;0.00;99.90;;;;;;4993098;28;20019;-78
2023/02/12 00:39:55;;;;;;;6.60;3.53;;;-0.10;99.90;;;;;;4994147;28;20022;-77
2023/02/12 00:42:21;;;;;;;6.75;3.42;;;-0.10;99.90;;;;;;4993770;28;20076;-77
2023/02/12 00:44:47;;;;;;;8.07;4.43;;;-0.10;99.90;;;;;;4992652;28;20061;-78
2023/02/12 00:47:13;;;;;;;9.38;4.00;;;-0.10;99.90;;;;;;4992432;28;20026;-78
2023/02/12 00:49:38;;;;;;;6.78;4.18;;;-0.10;99.90;;;;;;4994087;28;20030;-77
2023/02/12 00:52:04;;;;;;;7.20;4.05;;;-0.10;99.90;;;;;;4993698;28;20026;-75
2023/02/12 00:54:31;;;;;;;8.90;4.75;;;-0.10;99.90;;;;;;4993532;28;20045;-77
2023/02/12 00:56:57;;;;;;;9.45;5.55;;;-0.10;99.90;;;;;;4993563;28;20515;-76
2023/02/12 00:59:24;;;;;;;5.80;4.35;;;-0.10;99.90;;;;;;4993451;28;20026;-76
2023/02/12 01:01:51;;;;;;;10.63;6.47;;;-0.20;99.90;;;;;;4993659;28;20035;-75
2023/02/12 01:04:17;;;;;;;6.47;5.18;;;-0.20;99.90;;;;;;4992981;28;20036;-76
2023/02/12 01:06:43;;;;;;;8.73;6.30;;;-0.20;99.90;;;;;;4988135;28;20022;-82
2023/02/12 01:09:09;;;;;;;12.77;6.47;;;-0.30;99.90;;;;;;4992537;28;20033;-77
2023/02/12 01:11:35;;;;;;;10.32;5.43;;;-0.30;99.90;;;;;;4993157;28;20497;-78
2023/02/12 01:14:01;;;;;;;9.05;6.18;;;-0.30;99.90;;;;;;4993381;28;20027;-80
2023/02/12 01:16:27;;;;;;;9.25;5.68;;;-0.30;99.90;;;;;;4993239;28;20050;-78
2023/02/12 01:18:54;;;;;;;11.77;6.40;;;-0.40;99.90;;;;;;4993252;28;20148;-79
2023/02/12 01:21:25;;;;;;;8.37;5.33;;;-0.40;99.90;;;;;;4991652;28;20057;-80
2023/02/12 01:23:51;;;;;;;10.70;7.70;;;-0.40;99.90;;;;;;4991599;28;20331;-78
2023/02/12 01:26:18;;;;;;;11.00;6.53;;;-0.40;99.90;;;;;;4993116;28;20132;-79
2023/02/12 01:28:48;;;;;;;10.77;5.43;;;-0.50;99.90;;;;;;4992359;28;20022;-74
2023/02/12 01:31:38;;;;;;;7.88;5.82;;;-0.50;99.90;;;;;;4992932;28;20115;-76
2023/02/12 01:34:05;;;;;;;10.40;6.75;;;-0.60;99.90;;;;;;4992230;28;20106;-76
2023/02/12 01:36:31;;;;;;;8.90;6.40;;;-0.60;99.90;;;;;;4990842;28;20437;-76
2023/02/12 01:38:58;;;;;;;9.68;6.53;;;-0.60;99.90;;;;;;4992393;28;20057;-76
2023/02/12 01:41:30;;;;;;;19.25;6.28;;;-0.70;99.90;;;;;;4992634;28;20035;-77
2023/02/12 01:44:21;;;;;;;8.18;5.10;;;-0.70;99.90;;;;;;4992494;28;20023;-77
2023/02/12 01:47:02;;;;;;;8.30;5.68;;;-0.70;99.90;;;;;;4991412;28;20106;-74
2023/02/12 01:49:37;;;;;;;8.68;6.63;;;-0.80;99.90;;;;;;4982940;28;20026;-77
2023/02/12 01:52:26;;;;;;;10.02;5.07;;;-0.90;99.90;;;;;;4989343;28;20068;-77
2023/02/12 01:54:55;;;;;;;8.98;6.75;;;-0.90;99.90;;;;;;4989986;28;20133;-76
2023/02/12 01:57:21;;;;;;;8.57;6.03;;;-1.00;99.90;;;;;;4992217;28;20037;-76
2023/02/12 01:59:53;;;;;;;10.02;6.32;;;-1.00;99.90;;;;;;4992574;28;20038;-77
2023/02/12 02:02:19;;;;;;;5.82;4.60;;;-1.00;99.90;;;;;;4992108;28;20036;-76
2023/02/12 02:04:52;;;;;;;16.35;6.63;;;-1.00;99.90;;;;;;4992421;28;20038;-77
2023/02/12 02:07:18;;;;;;;10.38;5.85;;;-1.10;99.90;;;;;;4990889;28;20026;-77
2023/02/12 02:09:45;;;;;;;12.90;5.55;;;-1.10;99.90;;;;;;4989778;28;20045;-78
2023/02/12 02:14:59;;;;;;;4.90;3.65;;;-1.10;99.90;;;;;;4992078;28;20091;-77
2023/02/12 02:17:50;;;;;;;5.78;4.22;;;-1.20;99.90;;;;;;4984970;28;20015;-77
2023/02/12 02:20:41;;;;;;;7.95;3.92;;;-1.30;99.90;;;;;;4992000;28;20053;-76
2023/02/12 02:23:13;;;;;;;7.70;4.45;;;-1.30;99.90;;;;;;4991828;28;20084;-77
2023/02/12 02:26:00;;;;;;;5.53;4.18;;;-1.30;99.90;;;;;;4991963;28;20077;-77
2023/02/12 02:28:37;;;;;;;8.82;3.95;;;-1.40;99.90;;;;;;4990432;28;20034;-76
2023/02/12 02:31:13;;;;;;;7.47;3.15;;;-1.40;99.90;;;;;;4992206;28;20029;-76
2023/02/12 02:33:43;;;;;;;4.78;3.40;;;-1.40;99.90;;;;;;4991901;28;20019;-76
2023/02/12 02:36:16;;;;;;;7.70;3.58;;;-1.50;99.90;;;;;;4992202;28;20376;-75
2023/02/12 02:38:49;;;;;;;4.60;3.50;;;-1.50;99.90;;;;;;4989697;28;20034;-75
2023/02/12 02:41:43;;;;;;;17.33;3.83;;;-1.50;99.90;;;;;;4982375;28;20030;-76
2023/02/12 02:44:24;;;;;;;4.30;2.78;;;-1.50;99.90;;;;;;4989261;28;20023;-76
2023/02/12 02:46:53;;;;;;;5.88;3.22;;;-1.50;99.90;;;;;;4991988;28;20026;-76
2023/02/12 02:49:26;;;;;;;3.75;3.03;;;-1.60;99.90;;;;;;4991792;28;20033;-75
2023/02/12 02:52:02;;;;;;;6.68;3.95;;;-1.60;99.90;;;;;;4990804;28;20039;-76
2023/02/12 02:54:33;;;;;;;7.45;4.57;;;-1.60;99.90;;;;;;4990531;28;20023;-78
2023/02/12 02:57:23;;;;;;;12.50;4.47;;;-1.60;99.90;;;;;;4991925;28;20515;-77
2023/02/12 02:59:57;;;;;;;8.82;5.03;;;-1.60;99.90;;;;;;4991688;28;20381;-75
2023/02/12 03:02:36;;;;;;;19.23;5.22;;;-1.70;99.90;;;;;;4993319;28;20062;-74
2023/02/12 03:05:08;;;;;;;8.40;3.97;;;-1.70;99.90;;;;;;4996197;28;20782;-76
2023/02/12 03:07:59;;;;;;;6.53;4.80;;;-1.60;99.90;;;;;;4995558;28;20022;-74
2023/02/12 03:10:33;;;;;;;8.68;5.38;;;-1.70;99.90;;;;;;4993233;28;21100;-76
2023/02/12 03:13:06;;;;;;;8.65;4.78;;;-1.70;99.90;;;;;;4995399;28;20105;-76
2023/02/12 03:15:45;;;;;;;9.02;4.55;;;-1.70;99.90;;;;;;4995586;28;20100;-74
2023/02/12 03:18:22;;;;;;;8.13;5.72;;;-1.70;99.90;;;;;;4995440;28;20023;-76
2023/02/12 03:20:54;;;;;;;10.27;5.57;;;-1.70;99.90;;;;;;4995431;28;20046;-78
2023/02/12 03:23:57;;;;;;;9.38;5.55;;;-1.80;99.90;;;;;;4995389;28;20028;-75
2023/02/12 03:26:46;;;;;;;11.65;6.20;;;-1.80;99.90;;;;;;4985967;28;20373;-74
2023/02/12 03:29:12;;;;;;;9.05;4.82;;;-1.80;99.90;;;;;;4993165;28;20030;-76
2023/02/12 03:32:06;;;;;;;8.02;4.50;;;-1.80;99.90;;;;;;4994405;28;20049;-75
2023/02/12 03:34:51;;;;;;;11.65;5.05;;;-1.80;99.90;;;;;;4985219;28;20026;-77
2023/02/12 03:37:29;;;;;;;9.80;5.28;;;-1.80;99.90;;;;;;4995043;28;20033;-73
2023/02/12 03:40:13;;;;;;;14.05;4.35;;;-1.80;99.90;;;;;;4995039;28;20037;-74
2023/02/12 03:42:49;;;;;;;5.63;4.03;;;-1.90;99.90;;;;;;4984630;28;20547;-77
2023/02/12 03:45:40;;;;;;;8.93;5.18;;;-1.90;99.90;;;;;;4994991;28;20026;-75
2023/02/12 03:48:21;;;;;;;8.02;4.13;;;-2.00;99.90;;;;;;4990498;28;20026;-75
2023/02/12 03:51:09;;;;;;;5.63;3.08;;;-2.00;99.90;;;;;;4991869;28;20030;-76
2023/02/12 03:53:35;;;;;;;7.43;5.05;;;-2.10;99.90;;;;;;4994700;28;20019;-76
2023/02/12 03:56:24;;;;;;;5.57;3.70;;;-2.00;99.90;;;;;;4994487;28;20065;-77
2023/02/12 03:58:50;;;;;;;11.45;5.43;;;-2.10;99.90;;;;;;4994884;28;20021;-76
2023/02/12 04:01:16;;;;;;;6.03;3.80;;;-2.10;99.90;;;;;;4994589;28;20030;-76
2023/02/12 04:03:43;;;;;;;5.22;2.72;;;-2.20;99.90;;;;;;4994488;28;20118;-76
2023/02/12 04:06:24;;;;;;;5.87;3.60;;;-2.10;99.90;;;;;;4994579;28;20018;-74
2023/02/12 04:08:52;;;;;;;5.68;3.65;;;-2.10;99.90;;;;;;4993219;28;20029;-74
2023/02/12 04:11:34;;;;;;;17.48;5.43;;;-2.20;99.90;;;;;;4994940;28;20026;-73
2023/02/12 04:14:12;;;;;;;4.93;3.67;;;-2.20;99.90;;;;;;4993178;28;20034;-75
2023/02/12 04:16:56;;;;;;;5.28;2.80;;;-2.20;99.90;;;;;;4987364;28;20026;-74
2023/02/12 04:19:46;;;;;;;5.82;3.70;;;-2.30;99.90;;;;;;4988822;28;20051;-76
2023/02/12 04:22:33;;;;;;;8.80;3.40;;;-2.20;99.90;;;;;;4994153;28;20042;-76
2023/02/12 04:25:24;;;;;;;7.50;3.55;;;-2.30;99.90;;;;;;4994142;28;20149;-75
2023/02/12 04:28:09;;;;;;;4.05;2.97;;;-2.30;99.90;;;;;;4994268;28;20030;-75
2023/02/12 04:30:55;;;;;;;7.18;3.53;;;-2.30;99.90;;;;;;4993837;28;20029;-77
2023/02/12 04:33:24;;;;;;;4.95;3.30;;;-2.30;99.90;;;;;;4994117;28;20022;-76
2023/02/12 04:36:25;;;;;;;7.53;3.55;;;-2.40;99.90;;;;;;4981952;28;20117;-76
2023/02/12 04:38:56;;;;;;;17.40;4.53;;;-2.40;99.90;;;;;;4994023;28;20034;-77
2023/02/12 04:41:24;;;;;;;6.53;3.60;;;-2.40;99.90;;;;;;4994162;28;20452;-75
2023/02/12 04:43:53;;;;;;;5.85;3.40;;;-2.50;99.90;;;;;;4992671;28;20118;-76
2023/02/12 04:46:19;;;;;;;4.95;3.00;;;-2.50;99.90;;;;;;4990279;28;20370;-74
2023/02/12 04:48:59;;;;;;;8.18;3.08;;;-2.50;99.90;;;;;;4992497;28;20164;-76
2023/02/12 04:51:25;;;;;;;4.20;2.97;;;-2.50;99.90;;;;;;4993832;28;20031;-77
2023/02/12 04:53:51;;;;;;;7.32;2.97;;;-2.50;99.90;;;;;;4993463;28;20436;-78
2023/02/12 04:56:17;;;;;;;7.28;2.50;;;-2.50;99.90;;;;;;4993805;28;20053;-77
2023/02/12 04:58:43;;;;;;;7.28;3.33;;;-2.50;99.90;;;;;;4991628;28;20067;-76
2023/02/12 05:01:09;;;;;;;6.53;3.50;;;-2.50;99.90;;;;;;4993697;28;20440;-77
2023/02/12 05:03:35;;;;;;;7.28;3.63;;;-2.60;99.90;;;;;;4993610;28;20037;-77
2023/02/12 05:06:06;;;;;;;6.15;2.40;;;-2.60;99.90;;;;;;4993617;28;20031;-77
2023/02/12 05:08:32;;;;;;;5.30;3.65;;;-2.50;99.90;;;;;;4993755;28;20062;-76
2023/02/12 05:11:03;;;;;;;9.88;3.55;;;-2.60;99.90;;;;;;4994007;28;20088;-78
2023/02/12 05:13:29;;;;;;;11.40;2.40;;;-2.60;99.90;;;;;;4993466;28;20469;-76
2023/02/12 05:15:55;;;;;;;4.22;2.65;;;-2.60;99.90;;;;;;4993494;28;20045;-78
2023/02/12 05:18:21;;;;;;;5.10;2.58;;;-2.50;99.80;;;;;;4993642;28;20094;-77
2023/02/12 05:20:57;;;;;;;3.00;2.47;;;-2.50;99.90;;;;;;4993137;28;20042;-78
2023/02/12 05:23:27;;;;;;;2.47;1.87;;;-2.50;99.90;;;;;;4992715;28;20121;-76
2023/02/12 05:25:53;;;;;;;2.33;1.67;;;-2.50;99.90;;;;;;4993009;28;20031;-78
2023/02/12 05:28:19;;;;;;;2.75;2.30;;;-2.50;99.90;;;;;;4992992;28;20019;-78
2023/02/12 05:30:45;;;;;;;7.53;2.20;;;-2.50;99.90;;;;;;4993138;28;20478;-76
2023/02/12 05:33:10;;;;;;;5.55;2.30;;;-2.60;99.90;;;;;;4993197;28;20023;-77
2023/02/12 05:35:36;;;;;;;3.60;2.00;;;-2.60;99.90;;;;;;4991789;28;20052;-78
2023/02/12 05:38:02;;;;;;;7.07;2.97;;;-2.60;99.90;;;;;;4989757;28;20030;-78
2023/02/12 05:40:28;;;;;;;6.07;2.22;;;-2.60;99.90;;;;;;4992725;28;20073;-76
2023/02/12 05:42:54;;;;;;;2.22;1.80;;;-2.60;99.90;;;;;;4992922;28;20061;-76
2023/02/12 05:45:20;;;;;;;4.25;2.60;;;-2.50;99.90;;;;;;4991343;28;20018;-76
2023/02/12 05:47:45;;;;;;;8.82;2.22;;;-2.50;99.90;;;;;;4992487;28;20105;-76
2023/02/12 05:50:11;;;;;;;4.78;2.20;;;-2.50;99.90;;;;;;4992923;28;20022;-77
2023/02/12 05:52:37;;;;;;;4.53;1.83;;;-2.60;99.90;;;;;;4992543;28;20023;-76
2023/02/12 05:55:03;;;;;;;4.28;1.75;;;-2.60;99.90;;;;;;4990891;28;20097;-77
2023/02/12 05:57:29;;;;;;;4.55;1.83;;;-2.60;99.90;;;;;;4991472;28;20491;-76
2023/02/12 05:59:55;;;;;;;3.67;1.48;;;-2.60;99.90;;;;;;4991046;28;20084;-75
2023/02/12 06:02:20;;;;;;;7.57;2.10;;;-2.70;99.90;;;;;;5007422;28;20042;-77
2023/02/12 06:04:47;;;;;;;3.25;1.40;;;-2.70;99.90;;;;;;4992780;28;20188;-76
2023/02/12 06:07:13;;;;;;;4.35;1.77;;;-2.70;99.90;;;;;;4991259;28;20484;-78
2023/02/12 06:09:39;;;;;;;2.63;1.45;;;-2.70;99.90;;;;;;4992484;28;20065;-77
2023/02/12 06:12:05;;;;;;;6.00;2.47;;;-2.70;99.90;;;;;;4992415;28;20487;-77
2023/02/12 06:14:31;;;;;;;3.83;1.98;;;-2.70;99.90;;;;;;4992206;28;20026;-77
2023/02/12 06:16:57;;;;;;;6.00;2.70;;;-2.80;99.70;;;;;;4990878;28;20021;-77
2023/02/12 06:19:23;;;;;;;3.40;2.00;;;-2.80;99.50;;;;;;4990941;28;20034;-78
2023/02/12 06:21:49;;;;;;;2.97;1.70;;;-2.80;99.30;;;;;;4991723;28;20495;-76
2023/02/12 06:24:16;;;;;;;3.55;2.08;;;-2.90;99.30;;;;;;4992187;28;20026;-77
2023/02/12 06:26:42;;;;;;;2.35;2.00;;;-2.80;99.30;;;;;;4991500;28;20106;-77
2023/02/12 06:29:10;;;;;;;7.00;2.17;;;-2.80;99.10;;;;;;4992095;28;20519;-76
2023/02/12 06:31:36;;;;;;;4.35;2.08;;;-2.80;99.00;;;;;;4992132;28;20154;-76
2023/02/12 06:34:07;;;;;;;17.13;1.90;;;-2.80;98.80;;;;;;4991887;28;20029;-75
2023/02/12 06:36:36;;;;;;;2.67;1.70;;;-2.80;98.90;;;;;;4991360;28;20022;-76
2023/02/12 06:39:02;;;;;;;2.80;1.58;;;-2.70;99.00;;;;;;4990414;28;20153;-77
2023/02/12 06:41:29;;;;;;;3.83;1.55;;;-2.70;98.60;;;;;;4992088;28;20053;-76
2023/02/12 06:43:54;;;;;;;3.67;1.58;;;-2.80;98.70;;;;;;4991995;28;20381;-77
2023/02/12 06:46:21;;;;;;;2.05;1.52;;;-2.80;98.90;;;;;;4992050;28;20034;-76
2023/02/12 06:48:46;;;;;;;2.63;2.00;;;-2.80;98.80;;;;;;4991744;28;20484;-76
2023/02/12 06:51:15;;;;;;;9.13;1.77;;;-2.80;99.00;;;;;;4992012;28;20037;-76
2023/02/12 06:53:42;;;;;;;6.07;2.60;;;-2.70;98.10;;;;;;4991754;28;20038;-76
2023/02/12 06:56:10;;;;;;;8.10;2.20;;;-2.80;97.90;;;;;;4991582;28;20054;-77
2023/02/12 06:58:37;;;;;;;3.50;1.20;;;-2.80;98.20;;;;;;4991778;28;20038;-76
2023/02/12 07:01:13;;;;;;;3.55;1.85;;;-2.80;98.10;;;;;;4991419;28;20033;-76
2023/02/12 07:03:50;;;;;;;2.10;1.92;;;-2.80;97.70;;;;;;4991632;28;20085;-77
2023/02/12 07:06:16;;;;;;;3.78;2.00;;;-2.90;97.40;;;;;;4991474;28;20023;-75
2023/02/12 07:08:42;;;;;;;4.18;1.98;;;;;;;;;;4991539;28;20384;-76
2023/02/12 07:11:09;;;;;;;3.85;1.52;;;-3.00;97.40;;;;;;4991616;28;20117;-76
2023/02/12 07:13:35;;;;;;;2.95;1.58;;;-3.00;97.40;;;;;;4991548;28;20041;-76
2023/02/12 07:16:12;;;;;;;3.70;2.00;;;-3.00;97.10;;;;;;4991514;28;20042;-78
2023/02/12 07:18:38;;;;;;;2.28;1.38;;;-3.10;97.10;;;;;;4990111;28;20026;-76
2023/02/12 07:21:06;;;;;;;6.07;1.92;;;-3.10;97.30;;;;;;4990239;28;20048;-77
2023/02/12 07:23:32;;;;;;;1.42;1.05;;;-3.10;97.70;;;;;;4991303;28;20023;-77
2023/02/12 07:26:00;;;;;;;3.58;1.60;;;-3.10;97.30;;;;;;4991246;28;20040;-77
2023/02/12 07:28:26;;;;;;;5.93;1.80;;;-3.10;97.90;;;;;;4991168;28;20080;-76
2023/02/12 07:30:52;;;;;;;6.28;1.45;;;-3.00;98.00;;;;;;4991423;28;20044;-76
2023/02/12 07:33:19;;;;;;;3.53;1.30;;;-3.00;97.30;;;;;;4991341;28;20026;-77
2023/02/12 07:35:45;;;;;;;4.93;1.80;;;-2.90;96.90;;;;;;4991250;28;20037;-76
2023/02/12 07:38:11;;;;;;;2.42;1.58;;;-2.90;96.70;;;;;;4989380;28;20030;-76
2023/02/12 07:40:38;;;;;;;6.03;2.17;;;-2.90;96.60;;;;;;4990203;28;20121;-76
2023/02/12 07:43:03;;;;;;;2.78;1.38;;;-2.90;97.30;;;;;;4990697;28;20030;-77
2023/02/12 07:45:29;;;;;;;4.30;1.42;;;-2.80;97.20;;;;;;4989504;28;20030;-76
2023/02/12 07:47:55;;;;;;;1.75;1.33;;;-2.80;96.70;;;;;;4993579;28;20471;-78
2023/02/12 07:50:21;;;;;;;3.35;1.23;;;-2.80;96.30;;;;;;4994834;28;20036;-78
2023/02/12 07:52:50;;;;;;;2.15;1.25;;;-2.70;95.80;;;;;;4994616;28;20033;-75
2023/02/12 07:55:16;;;;;;;1.92;1.13;;;-2.80;94.80;;;;;;4994781;28;20038;-77
2023/02/12 07:57:42;;;;;;;2.60;1.38;;;-2.90;95.10;;;;;;4994460;28;20045;-77
2023/02/12 08:00:09;;;;;;;5.85;1.60;;;-2.90;94.90;;;;;;4994582;28;20419;-77
2023/02/12 08:02:35;;;;;;;3.53;1.30;;;-3.00;95.10;;;;;;4994281;28;20031;-77
2023/02/12 08:05:01;;;;;;;1.98;1.33;;;-3.00;95.60;;;;;;4994544;28;20084;-75
2023/02/12 08:07:27;;;;;;;3.40;1.75;;;-2.90;96.30;;;;;;4994327;28;20080;-77
2023/02/12 08:09:53;;;;;;;4.63;1.30;;;-2.90;95.90;;;;;;4994587;28;20110;-78
2023/02/12 08:12:22;;;;;;;1.77;1.38;;;-2.80;95.30;;;;;;4994607;28;20105;-78
2023/02/12 08:14:51;;;;;;;2.83;1.92;;;-2.80;95.00;;;;;;4994975;28;20035;-77
2023/02/12 08:17:17;;;;;;;1.60;1.38;;;-2.90;95.20;;;;;;4994467;28;20104;-78
2023/02/12 08:19:43;;;;;;;2.22;1.40;;;-2.90;95.10;;;;;;4992985;28;20046;-77
2023/02/12 08:22:08;;;;;;;6.07;2.30;;;-3.00;95.40;;;;;;4994360;28;20511;-78
2023/02/12 08:24:34;;;;;;;3.60;1.38;;;-3.00;95.40;;;;;;4991124;28;20082;-77
2023/02/12 08:27:00;;;;;;;3.47;1.73;;;-3.00;95.80;;;;;;4994248;28;20380;-77
2023/02/12 08:29:29;;;;;;;2.30;1.35;;;-3.00;95.60;;;;;;4994436;28;20101;-76
2023/02/12 08:32:00;;;;;;;2.10;1.10;;;-2.90;95.70;;;;;;4993855;28;20030;-77
2023/02/12 08:34:34;;;;;;;5.22;1.60;;;-2.90;95.20;;;;;;4994228;28;20092;-75
2023/02/12 08:37:00;;;;;;;2.90;1.63;;;-2.90;95.20;;;;;;4993967;28;20026;-76
2023/02/12 08:39:30;;;;;;;6.00;2.10;;;-2.90;95.10;;;;;;4987560;28;20388;-77
2023/02/12 08:41:58;;;;;;;1.98;1.20;;;-2.90;94.90;;;;;;4993650;28;20038;-77
2023/02/12 08:44:24;;;;;;;2.53;1.58;;;-2.80;94.80;;;;;;4993921;28;20101;-76
2023/02/12 08:46:52;;;;;;;8.75;1.50;;;-2.80;94.90;;;;;;4993786;28;20116;-77
2023/02/12 08:49:19;;;;;;;;;;;-2.80;95.00;;;;;;4994354;28;20018;-76
2023/02/12 08:51:47;;;;;;;6.45;1.85;;;-2.80;95.00;;;;;;4993807;28;19913;-77
2023/02/12 08:54:20;;;;;;;3.90;1.80;;;-2.80;94.70;;;;;;4993929;28;20023;-77
2023/02/12 08:56:46;;;;;;;2.38;1.30;;;-2.80;93.60;;;;;;4993411;28;20416;-76
2023/02/12 08:59:14;;;;;;;3.67;1.17;;;-2.90;93.90;;;;;;4992793;28;20034;-77
2023/02/12 09:01:40;;;;;;;3.05;1.50;;;-2.90;94.00;;;;;;4993389;28;20057;-75
2023/02/12 09:04:17;;;;;;;2.28;1.45;;;-2.80;94.60;;;;;;4992049;28;20022;-77
2023/02/12 09:06:45;;;;;;;3.42;1.30;;;-2.70;94.40;;;;;;4991942;28;20033;-77
2023/02/12 09:09:11;;;;;;;3.20;1.55;;;-2.60;94.00;;;;;;4993273;28;20029;-76
2023/02/12 09:11:37;;;;;;;3.10;1.48;;;-2.50;93.10;;;;;;4993506;28;20022;-77
2023/02/12 09:14:09;;;;;;;2.63;1.30;;;-2.50;91.90;;;;;;4993194;28;20048;-76
2023/02/12 09:16:36;;;;;;;5.15;1.20;;;-2.70;92.70;;;;;;4993241;28;20420;-77
2023/02/12 09:19:03;;;;;;;1.75;1.05;;;-2.70;92.70;;;;;;4991684;28;20053;-75
2023/02/12 09:21:29;;;;;;;4.35;1.48;;;-2.80;92.00;;;;;;4992988;28;20030;-76
2023/02/12 09:23:55;;;;;;;2.53;1.60;;;-3.00;92.40;;;;;;4992792;28;20106;-77
2023/02/12 09:26:25;;;;;;;6.18;1.80;;;-3.00;92.70;;;;;;4992885;28;20445;-75
2023/02/12 09:28:52;;;;;;;3.85;1.95;;;-2.90;93.00;;;;;;4992697;28;20046;-76
2023/02/12 09:31:24;;;;;;;1.90;1.30;;;-2.90;93.10;;;;;;4993066;28;20030;-77
2023/02/12 09:33:52;;;;;;;1.30;0.85;;;-2.90;92.70;;;;;;4992519;28;20108;-76
2023/02/12 09:36:18;;;;;;;;;;;-2.90;91.90;;;;;;4993455;28;20069;-78
2023/02/12 09:38:47;;;;;;;3.67;1.27;;;-2.90;92.20;;;;;;4991624;28;19960;-77
2023/02/12 09:41:31;;;;;;;2.53;1.42;;;-2.90;92.20;;;;;;4993621;28;20408;-76
2023/02/12 09:44:16;;;;;;;1.45;0.98;;;-2.80;91.70;;;;;;4990842;28;20026;-76
2023/02/12 09:46:58;;;;;;;6.32;1.25;;;-2.50;92.30;;;;;;4991365;28;20023;-77
2023/02/12 09:49:52;;;;;;;4.68;0.93;;;-2.10;91.70;;;;;;4992280;28;20046;-77
2023/02/12 09:52:22;;;;;;;3.58;1.13;;;-1.80;91.40;;;;;;4991337;28;20018;-78
2023/02/12 09:54:49;;;;;;;3.65;1.25;;;-1.70;91.20;;;;;;4992261;28;20120;-78
2023/02/12 09:57:35;;;;;;;2.03;1.50;;;-1.50;91.20;;;;;;4992276;28;20117;-78
2023/02/12 10:00:13;;;;;;;4.47;1.30;;;-1.40;90.80;;;;;;4981977;28;20385;-78
2023/02/12 10:02:40;;;;;;;4.13;1.30;;;-1.40;90.70;;;;;;4992163;28;20053;-78
2023/02/12 10:05:19;;;;;;;4.72;1.40;;;-1.40;90.20;;;;;;4992279;28;20407;-77
2023/02/12 10:08:06;;;;;;;1.30;1.20;;;-1.40;90.20;;;;;;4992467;28;20038;-77
2023/02/12 10:10:54;;;;;;;2.20;1.48;;;-1.50;90.90;;;;;;4984262;28;20037;-77
2023/02/12 10:13:46;;;;;;;4.25;2.30;;;-1.40;90.70;;;;;;4989851;28;20365;-78
2023/02/12 10:16:50;;;;;;;4.45;1.20;;;-1.30;90.40;;;;;;4992363;28;20037;-78
2023/02/12 10:19:31;;;;;;;3.75;1.30;;;-1.30;89.00;;;;;;4976990;28;20031;-78
2023/02/12 10:22:34;;;;;;;3.30;2.95;;;-1.00;89.90;;;;;;4989338;28;20373;-78
2023/02/12 10:25:12;;;;;;;2.38;1.70;;;-0.40;88.20;;;;;;4992126;28;20384;-78
2023/02/12 10:27:53;;;;;;;5.80;2.00;;;0.00;86.90;;;;;;4991828;28;20027;-76
2023/02/12 10:31:00;;;;;;;3.05;1.27;;;0.80;99.90;;;;;;4991775;28;20074;-77
2023/02/12 10:33:28;;;;;;;;;;;1.10;84.70;;;;;;4987210;28;20038;-77
2023/02/12 10:36:15;;;;;;;3.67;1.10;;;1.50;78.90;;;;;;4992410;28;19905;-77
2023/02/12 10:38:46;;;;;;;1.60;1.00;;;1.40;77.70;;;;;;4981553;28;20045;-78
2023/02/12 10:41:14;;;;;;;2.50;1.23;;;0.80;76.50;;;;;;4991629;28;20069;-78
2023/02/12 10:43:41;;;;;;;2.80;1.08;;;0.40;76.10;;;;;;4991346;28;20023;-77
2023/02/12 10:46:13;;;;;;;2.95;1.08;;;-0.10;78.40;;;;;;4992156;28;20093;-77
2023/02/12 10:48:41;;;;;;;2.70;1.00;;;-0.50;81.40;;;;;;4992085;28;20026;-77
2023/02/12 10:51:06;;;;;;;2.35;1.00;;;-0.90;82.60;;;;;;4992111;28;20381;-77
2023/02/12 10:53:44;;;;;;;1.38;0.90;;;-1.20;84.50;;;;;;4990190;28;20106;-77
2023/02/12 10:56:23;;;;;;;2.58;1.15;;;-1.40;85.00;;;;;;4991152;28;20121;-78
2023/02/12 10:58:49;;;;;;;3.33;1.50;;;-1.60;85.00;;;;;;4989216;28;20053;-80
2023/02/12 11:01:36;;;;;;;3.47;2.53;;;-1.80;84.30;;;;;;4990795;28;20022;-80
2023/02/12 11:04:27;;;;;;;3.17;1.30;;;-2.00;84.80;;;;;;4991276;28;20217;-77
2023/02/12 11:07:08;;;;;;;6.50;1.52;;;-2.20;87.50;;;;;;4990563;28;20054;-77
2023/02/12 11:09:46;;;;;;;4.65;1.70;;;-2.30;88.40;;;;;;4989552;28;20069;-81
2023/02/12 11:12:24;;;;;;;2.47;0.90;;;-2.40;90.00;;;;;;4991785;28;20109;-79
2023/02/12 11:14:56;;;;;;;2.55;1.38;;;-2.40;90.10;;;;;;4992090;28;20384;-78
2023/02/12 11:17:32;;;;;;;3.65;0.93;;;-2.50;89.50;;;;;;4991551;28;20029;-79
2023/02/12 11:20:16;;;;;;;2.40;1.30;;;-2.60;90.80;;;;;;4990896;28;20053;-77
2023/02/12 11:23:03;;;;;;;2.58;1.15;;;-2.70;90.40;;;;;;4993798;28;20038;-78
2023/02/12 11:25:31;;;;;;;2.80;1.45;;;-2.60;89.80;;;;;;4990634;28;20041;-77
2023/02/12 11:28:18;;;;;;;5.60;1.27;;;-2.70;90.40;;;;;;4995651;28;20487;-77
2023/02/12 11:31:03;;;;;;;3.33;1.10;;;-2.80;90.70;;;;;;4995193;28;20030;-78
2023/02/12 11:33:34;;;;;;;1.20;1.08;;;-2.90;90.10;;;;;;4995024;28;20080;-78
2023/02/12 11:39:38;;;;;;;2.60;1.73;;;-3.10;90.30;;;;;;4991991;28;20341;-79
2023/02/12 11:42:22;;;;;;;2.90;1.40;;;-3.10;91.10;;;;;;4990622;28;20034;-79
2023/02/12 11:44:54;;;;;;;2.08;1.17;;;-3.10;91.00;;;;;;4995201;28;20440;-79
2023/02/12 11:47:27;;;;;;;3.38;1.13;;;-3.20;91.20;;;;;;4993976;28;20026;-79
2023/02/12 11:49:59;;;;;;;1.50;0.95;;;-3.10;91.20;;;;;;4985361;28;20030;-80
2023/02/12 11:52:32;;;;;;;1.92;1.00;;;-3.10;90.80;;;;;;4994904;28;20045;-79
2023/02/12 11:55:01;;;;;;;2.05;0.95;;;-3.20;90.80;;;;;;4984516;28;20030;-78
2023/02/12 11:57:48;;;;;;;4.82;1.00;;;-3.10;91.00;;;;;;4994088;28;20580;-80
2023/02/12 12:00:27;;;;;;;1.50;1.40;;;-3.20;91.70;;;;;;4986113;28;20116;-77
2023/02/12 12:03:03;;;;;;;3.53;1.20;;;-3.20;92.00;;;;;;4994551;28;20045;-79
2023/02/12 12:05:37;;;;;;;4.53;1.55;;;-3.20;91.70;;;;;;4994454;28;20073;-79
2023/02/12 12:08:12;;;;;;;2.65;1.90;;;-3.10;92.10;;;;;;4994224;28;20025;-78
2023/02/12 12:10:55;;;;;;;3.60;1.60;;;-3.00;91.90;;;;;;4994572;28;20014;-78
2023/02/12 12:13:31;;;;;;;3.38;1.42;;;-2.90;91.80;;;;;;4984074;28;20399;-80
2023/02/12 12:22:26;;;;;;;6.65;2.60;;;-2.80;91.90;;;;;;4986010;28;20116;-80
2023/02/12 12:25:10;;;;;;;4.80;2.10;;;-2.70;92.40;;;;;;4974055;28;20030;-78
2023/02/12 12:28:08;;;;;;;4.93;3.15;;;-2.70;93.30;;;;;;4983186;28;20141;-80
2023/02/12 12:30:47;;;;;;;2.28;1.55;;;-2.60;92.30;;;;;;4989831;28;20022;-79
2023/02/12 12:33:27;;;;;;;4.03;1.50;;;-2.80;91.80;;;;;;4993428;28;20030;-79
2023/02/12 12:35:53;;;;;;;1.70;1.23;;;-2.80;92.20;;;;;;4991437;28;20049;-78
2023/02/12 12:38:26;;;;;;;2.33;1.33;;;-2.90;92.20;;;;;;4993496;28;20732;-79
2023/02/12 12:41:33;;;;;;;3.15;1.35;;;-3.00;92.20;;;;;;4993711;28;20152;-80
2023/02/12 12:44:17;;;;;;;1.73;1.40;;;-3.00;92.00;;;;;;4957195;28;20495;-78
2023/02/12 12:47:04;;;;;;;1.63;1.40;;;-3.10;92.30;;;;;;4994037;28;20367;-80
2023/02/12 12:49:48;;;;;;;2.78;1.63;;;-3.10;92.20;;;;;;4993023;28;20107;-79
2023/02/12 12:52:55;;;;;;;4.03;1.48;;;-3.10;92.10;;;;;;4993281;28;20038;-78
2023/02/12 12:55:29;;;;;;;1.65;1.20;;;-3.20;92.50;;;;;;4982128;28;20054;-78
2023/02/12 12:58:22;;;;;;;1.88;1.45;;;-3.10;92.70;;;;;;4993894;28;20101;-77
2023/02/12 13:01:36;;;;;;;1.52;1.33;;;-3.10;92.50;;;;;;4993082;28;20030;-79
2023/02/12 13:04:23;;;;;;;2.58;1.20;;;-3.10;92.10;;;;;;4952148;29;20059;-76
2023/02/12 13:06:56;;;;;;;2.80;1.35;;;-3.20;92.50;;;;;;4952018;29;20085;-77
2023/02/12 13:09:37;;;;;;;1.25;1.13;;;-3.20;92.50;;;;;;4952426;29;20027;-77
2023/02/12 13:12:20;;;;;;;1.42;1.20;;;-3.20;92.90;;;;;;4952358;29;20042;-75
2023/02/12 13:15:00;;;;;;;1.33;1.10;;;-3.20;92.60;;;;;;4936810;29;20039;-75
2023/02/12 13:17:38;;;;;;;3.55;1.42;;;-3.20;92.70;;;;;;4951997;29;20440;-75
2023/02/12 13:20:16;;;;;;;1.45;1.08;;;-3.30;92.50;;;;;;4950801;29;20138;-75
2023/02/12 13:23:01;;;;;;;1.73;1.42;;;-3.30;93.10;;;;;;4952286;29;20508;-74
2023/02/12 13:25:41;;;;;;;2.35;1.15;;;-3.30;93.00;;;;;;4952233;29;20766;-74
2023/02/12 13:28:14;;;;;;;3.63;1.50;;;-3.30;93.30;;;;;;4952496;29;20046;-75
2023/02/12 13:30:48;;;;;;;2.70;2.15;;;-3.40;92.70;;;;;;4952039;28;20050;-74